Flight Track Log - Related Links

Times and Time Zones

All times are in EDT time to prevent confusion due to time zone crossing. See the SWA565 flight status page for this flight to view local times or setup timezone preferences in your user account.


Time Position Orientation Groundspeed Altitude Reporting Facility
EDT Latitude Longitude Course Direction KTS MPH feet Rate Location/Type
Mon 11:09:43 PM 39.1500 -76.6500 298° West 156 180 2,000  Level Potomac TRACON
Mon 11:11:26 PM 39.1792 -76.7214 298° West 218 251 6,200 3,018 Climbing Washington Center
Mon 11:12:26 PM 39.1992 -76.8047 287° West 225 259 10,200 4,185 Climbing Washington Center
Mon 11:13:25 PM 39.2086 -76.8961 278° West 245 282 14,500 3,630 Climbing Washington Center
Mon 11:14:25 PM 39.2117 -76.9953 272° West 262 302 17,400 2,550 Climbing Washington Center
Mon 11:15:25 PM 39.1769 -77.1097 249° West 299 344 19,600 2,678 Climbing Washington Center
Mon 11:16:26 PM 39.1419 -77.2322 250° West 336 387 22,800 2,777 Climbing Washington Center
Mon 11:17:26 PM 39.1025 -77.3597 248° West 370 426 25,200 2,100 Climbing Washington Center
Mon 11:18:26 PM 39.0653 -77.4897 250° West 390 449 27,000 1,664 Climbing Washington Center
Mon 11:19:25 PM 39.0231 -77.6356 250° West 400 460 28,500 2,067 Climbing Washington Center
Mon 11:20:25 PM 38.9833 -77.7681 249° West 405 466 31,100 2,579 Climbing Washington Center
Mon 11:21:26 PM 38.9453 -77.9031 250° West 405 466 33,700 2,450 Climbing Washington Center
Mon 11:22:25 PM 38.9075 -78.0272 249° West 400 460 36,000 1,966 Climbing Washington Center
Mon 11:23:25 PM 38.8694 -78.1486 248° West 385 443 37,600 1,000 Climbing Washington Center
Mon 11:24:25 PM 38.8500 -78.2758 259° West 378 435 38,000 850 Climbing Washington Center
Mon 11:25:25 PM 38.8494 -78.4011 270° West 366 421 39,300 1,000 Climbing Washington Center
Mon 11:26:25 PM 38.8361 -78.5231 262° West 360 414 40,000 350 Climbing Washington Center
Mon 11:27:25 PM 38.8183 -78.6503 260° West 360 414 40,000  Level Washington Center
Mon 11:28:25 PM 38.8003 -78.7803 260° West 370 426 40,000  Level Washington Center
Mon 11:29:26 PM 38.7822 -78.9072 260° West 370 426 40,000  Level Washington Center
Mon 11:30:26 PM 38.7661 -79.0369 261° West 370 426 40,000  Level Washington Center
Mon 11:31:26 PM 38.7456 -79.1664 259° West 370 426 40,000  Level Washington Center
Mon 11:32:26 PM 38.7378 -79.2886 265° West 370 426 40,000  Level Washington Center
Mon 11:33:25 PM 38.7144 -79.4311 258° West 375 432 40,000  Level Washington Center
Mon 11:34:25 PM 38.6978 -79.5606 261° West 375 432 40,000  Level Washington Center
Mon 11:35:26 PM 38.6767 -79.6922 258° West 375 432 40,000  Level Washington Center
Mon 11:36:25 PM 38.6603 -79.8083 260° West 375 432 40,000  Level Washington Center
Mon 11:37:25 PM 38.6408 -79.9378 259° West 375 432 40,000  Level Washington Center
Mon 11:38:26 PM 38.6217 -80.0667 259° West 375 432 40,000  Level Washington Center
Mon 11:39:26 PM 38.6022 -80.1958 259° West 375 432 40,000  Level Washington Center
Mon 11:41:19 PM 38.5633 -80.4300 258° West 368 423 40,000  Level Indianapolis Center
Mon 11:42:20 PM 38.5414 -80.5653 258° West 365 420 40,000  Level Indianapolis Center
Mon 11:43:21 PM 38.5203 -80.6936 258° West 369 425 40,000  Level Indianapolis Center
Mon 11:44:23 PM 38.4892 -80.8206 253° West 374 430 40,000  Level Indianapolis Center
Mon 11:45:24 PM 38.4597 -80.9464 253° West 370 426 40,000  Level Indianapolis Center
Mon 11:46:25 PM 38.4306 -81.0733 254° West 370 426 40,000  Level Indianapolis Center
Mon 11:47:26 PM 38.4006 -81.1989 253° West 368 423 40,000  Level Indianapolis Center
Mon 11:48:27 PM 38.3703 -81.3264 253° West 372 428 40,000  Level Indianapolis Center
Mon 11:49:28 PM 38.3400 -81.4519 253° West 368 423 40,000  Level Indianapolis Center
Mon 11:50:29 PM 38.3100 -81.5794 253° West 372 428 40,000  Level Indianapolis Center
Mon 11:51:30 PM 38.2797 -81.7036 253° West 367 422 40,000  Level Indianapolis Center
Mon 11:52:31 PM 38.2492 -81.8286 253° West 368 423 40,000  Level Indianapolis Center
Mon 11:53:31 PM 38.2181 -81.9522 252° West 366 421 40,000  Level Indianapolis Center
Mon 11:54:32 PM 38.1886 -82.0761 253° West 365 420 40,000  Level Indianapolis Center
Mon 11:55:33 PM 38.1581 -82.2000 253° West 367 422 40,000  Level Indianapolis Center
Mon 11:56:34 PM 38.1264 -82.3261 252° West 372 428 40,000  Level Indianapolis Center
Mon 11:57:35 PM 38.0917 -82.4678 253° West 369 425 40,000  Level Indianapolis Center
Mon 11:58:36 PM 38.0597 -82.5922 252° West 371 427 40,000  Level Indianapolis Center
Mon 11:59:37 PM 38.0294 -82.7161 253° West 369 425 40,000  Level Indianapolis Center
Tue 12:00:38 AM 37.9983 -82.8403 252° West 369 425 40,000  Level Indianapolis Center
Tue 12:01:38 AM 37.9519 -82.9572 243° Southwest 372 428 40,000  Level Indianapolis Center
Tue 12:02:39 AM 37.8975 -83.0753 240° Southwest 383 441 40,000  Level Indianapolis Center
Tue 12:03:40 AM 37.8425 -83.1906 239° Southwest 384 442 40,000  Level Indianapolis Center
Tue 12:04:41 AM 37.7772 -83.3250 238° Southwest 386 444 40,000  Level Indianapolis Center
Tue 12:05:42 AM 37.7222 -83.4411 239° Southwest 385 443 40,000  Level Indianapolis Center
Tue 12:06:43 AM 37.6658 -83.5583 239° Southwest 390 449 40,000  Level Indianapolis Center
Tue 12:07:43 AM 37.6097 -83.6733 238° Southwest 387 445 40,000  Level Indianapolis Center
Tue 12:08:44 AM 37.5542 -83.7886 239° Southwest 385 443 40,000  Level Indianapolis Center
Tue 12:09:45 AM 37.4989 -83.9033 239° Southwest 384 442 40,000  Level Indianapolis Center
Tue 12:10:46 AM 37.4422 -84.0167 238° Southwest 382 440 40,000  Level Indianapolis Center
Tue 12:11:47 AM 37.3864 -84.1311 238° Southwest 383 441 40,000  Level Indianapolis Center
Tue 12:12:48 AM 37.3308 -84.2450 238° Southwest 384 442 40,000  Level Indianapolis Center
Tue 12:13:48 AM 37.2750 -84.3592 238° Southwest 383 441 40,000  Level Indianapolis Center
Tue 12:14:49 AM 37.2183 -84.4725 238° Southwest 384 442 40,000 -295 Level Indianapolis Center
Tue 12:15:50 AM 37.1619 -84.5858 238° Southwest 384 442 39,400 -984 Descending Indianapolis Center
Tue 12:16:51 AM 37.1042 -84.7017 238° Southwest 389 448 38,000 -2,132 Descending Indianapolis Center
Tue 12:17:51 AM 37.0461 -84.8186 238° Southwest 394 453 35,100 -3,074 Descending Indianapolis Center
Tue 12:18:52 AM 36.9819 -84.9453 238° Southwest 396 456 31,800 -2,803 Descending Indianapolis Center
Tue 12:19:53 AM 36.9258 -85.0592 238° Southwest 389 448 29,400 -2,361 Descending Indianapolis Center
Tue 12:20:54 AM 36.8700 -85.1664 237° Southwest 372 428 27,000 -2,331 Descending Indianapolis Center
Tue 12:21:54 AM 36.8167 -85.2722 238° Southwest 363 418 24,700 -2,231 Descending Indianapolis Center
Tue 12:22:55 AM 36.7653 -85.3753 238° Southwest 354 407 22,500 -1,328 Descending Indianapolis Center
Tue 12:23:56 AM 36.7156 -85.4764 238° Southwest 345 397 22,000 -1,190 Descending Indianapolis Center
Tue 12:24:56 AM 36.6669 -85.5842 241° Southwest 349 402 20,100 -2,000 Descending Memphis Center
Tue 12:25:56 AM 36.6144 -85.6831 237° Southwest 349 402 18,000 -2,050 Descending Memphis Center
Tue 12:26:56 AM 36.5703 -85.7811 241° Southwest 344 396 16,000 -2,150 Descending Memphis Center
Tue 12:27:56 AM 36.5297 -85.8714 241° Southwest 322 371 13,700 -2,200 Descending Memphis Center
Tue 12:28:56 AM 36.4833 -85.9694 240° Southwest 322 371 11,600 -1,750 Descending Memphis Center
Tue 12:29:56 AM 36.4425 -86.0567 240° Southwest 322 371 10,200 -1,150 Descending Memphis Center
Tue 12:30:56 AM 36.4039 -86.1464 242° Southwest 294 338 9,300 -1,150 Descending Memphis Center
Tue 12:31:56 AM 36.3733 -86.2281 245° Southwest 267 307 7,900 -1,350 Descending Memphis Center
Tue 12:32:56 AM 36.3403 -86.3017 241° Southwest 256 295 6,600 -1,250 Descending Memphis Center
Tue 12:33:56 AM 36.3114 -86.3728 243° Southwest 245 282 5,400 -1,400 Descending Memphis Center
Tue 12:34:56 AM 36.2803 -86.4439 242° Southwest 245 282 3,800 -1,400 Descending Memphis Center
Tue 12:35:56 AM 36.2511 -86.5147 243° Southwest 245 282 2,600 -850 Descending Memphis Center
Tue 12:36:56 AM 36.2261 -86.5775 244° Southwest 225 259 2,100 -300 Descending Memphis Center
Tue 12:37:56 AM 36.2025 -86.6250 238° Southwest 185 213 2,000 -300 Descending Memphis Center
Tue 12:38:56 AM 36.1781 -86.6414 208° Southwest 137 158 1,500 -550 Descending Memphis Center
Tue 12:39:56 AM 36.1492 -86.6531 198° South 116 133 900 -400 Descending Memphis Center
Tue 12:40:56 AM 36.1161 -86.6700 202° Southwest 116 133 700 -200 Descending Memphis Center

Login

Don't have an account? Register now (free) for customized features, flight alerts, and more!